sensor_id;sensor_type;location;lat;lon;timestamp;P1;P2;P0
40947;PMS5003;49382;-25.924;28.194;2023-06-04T00:00:14;293;285;
40947;PMS5003;49382;-25.924;28.194;2023-06-04T00:02:40;298;290;
40947;PMS5003;49382;-25.924;28.194;2023-06-04T00:05:05;308;299;
40947;PMS5003;49382;-25.924;28.194;2023-06-04T00:07:30;289;280;
40947;PMS5003;49382;-25.924;28.194;2023-06-04T00:09:55;279;274;
40947;PMS5003;49382;-25.924;28.194;2023-06-04T00:12:21;268;261;
40947;PMS5003;49382;-25.924;28.194;2023-06-04T00:14:46;254;249;
40947;PMS5003;49382;-25.924;28.194;2023-06-04T00:17:11;242;239;
40947;PMS5003;49382;-25.924;28.194;2023-06-04T00:19:37;256;249;
40947;PMS5003;49382;-25.924;28.194;2023-06-04T00:22:02;242;240;
40947;PMS5003;49382;-25.924;28.194;2023-06-04T00:24:27;228;218;
40947;PMS5003;49382;-25.924;28.194;2023-06-04T00:26:52;214;211;
40947;PMS5003;49382;-25.924;28.194;2023-06-04T00:29:18;202;195;
40947;PMS5003;49382;-25.924;28.194;2023-06-04T00:31:43;194;188;
40947;PMS5003;49382;-25.924;28.194;2023-06-04T00:34:10;200;194;
40947;PMS5003;49382;-25.924;28.194;2023-06-04T00:36:34;241;230;
40947;PMS5003;49382;-25.924;28.194;2023-06-04T00:39:00;249;243;
40947;PMS5003;49382;-25.924;28.194;2023-06-04T00:41:25;243;237;
40947;PMS5003;49382;-25.924;28.194;2023-06-04T00:43:50;226;219;
40947;PMS5003;49382;-25.924;28.194;2023-06-04T00:46:16;186;182;
40947;PMS5003;49382;-25.924;28.194;2023-06-04T00:48:41;177;172;
40947;PMS5003;49382;-25.924;28.194;2023-06-04T00:51:07;163;157;
40947;PMS5003;49382;-25.924;28.194;2023-06-04T00:53:32;155;149;
40947;PMS5003;49382;-25.924;28.194;2023-06-04T00:55:57;212;205;
40947;PMS5003;49382;-25.924;28.194;2023-06-04T00:58:23;202;195;
40947;PMS5003;49382;-25.924;28.194;2023-06-04T01:00:48;182;179;
40947;PMS5003;49382;-25.924;28.194;2023-06-04T01:03:14;154;148;
40947;PMS5003;49382;-25.924;28.194;2023-06-04T01:05:40;153;147;
40947;PMS5003;49382;-25.924;28.194;2023-06-04T01:08:05;156;150;
40947;PMS5003;49382;-25.924;28.194;2023-06-04T01:10:30;156;151;
40947;PMS5003;49382;-25.924;28.194;2023-06-04T01:12:56;149;146;
40947;PMS5003;49382;-25.924;28.194;2023-06-04T01:15:21;161;156;
40947;PMS5003;49382;-25.924;28.194;2023-06-04T01:17:48;167;166;
40947;PMS5003;49382;-25.924;28.194;2023-06-04T01:20:18;171;164;
40947;PMS5003;49382;-25.924;28.194;2023-06-04T01:22:39;160;154;
40947;PMS5003;49382;-25.924;28.194;2023-06-04T01:25:04;149;147;
40947;PMS5003;49382;-25.924;28.194;2023-06-04T01:27:29;151;148;
40947;PMS5003;49382;-25.924;28.194;2023-06-04T01:29:55;148;147;
40947;PMS5003;49382;-25.924;28.194;2023-06-04T01:32:20;154;149;
40947;PMS5003;49382;-25.924;28.194;2023-06-04T01:34:47;147;143;
40947;PMS5003;49382;-25.924;28.194;2023-06-04T01:37:11;157;152;
40947;PMS5003;49382;-25.924;28.194;2023-06-04T01:39:37;157;151;
40947;PMS5003;49382;-25.924;28.194;2023-06-04T01:42:02;156;152;
40947;PMS5003;49382;-25.924;28.194;2023-06-04T01:44:27;142;136;
40947;PMS5003;49382;-25.924;28.194;2023-06-04T01:46:53;132;131;
40947;PMS5003;49382;-25.924;28.194;2023-06-04T01:49:18;135;132;
40947;PMS5003;49382;-25.924;28.194;2023-06-04T01:51:43;138;135;
40947;PMS5003;49382;-25.924;28.194;2023-06-04T01:54:09;137;134;
40947;PMS5003;49382;-25.924;28.194;2023-06-04T01:56:34;150;144;
40947;PMS5003;49382;-25.924;28.194;2023-06-04T01:59:00;144;143;
40947;PMS5003;49382;-25.924;28.194;2023-06-04T02:01:25;157;155;
40947;PMS5003;49382;-25.924;28.194;2023-06-04T02:03:50;163;159;
40947;PMS5003;49382;-25.924;28.194;2023-06-04T02:06:16;162;161;
40947;PMS5003;49382;-25.924;28.194;2023-06-04T02:08:41;158;157;
40947;PMS5003;49382;-25.924;28.194;2023-06-04T02:11:07;171;159;
40947;PMS5003;49382;-25.924;28.194;2023-06-04T02:13:33;159;156;
40947;PMS5003;49382;-25.924;28.194;2023-06-04T02:15:57;139;138;
40947;PMS5003;49382;-25.924;28.194;2023-06-04T02:18:23;155;152;
40947;PMS5003;49382;-25.924;28.194;2023-06-04T02:20:49;166;162;
40947;PMS5003;49382;-25.924;28.194;2023-06-04T02:23:15;163;158;
40947;PMS5003;49382;-25.924;28.194;2023-06-04T02:25:40;168;164;
40947;PMS5003;49382;-25.924;28.194;2023-06-04T02:28:05;162;158;
40947;PMS5003;49382;-25.924;28.194;2023-06-04T02:30:31;164;160;
40947;PMS5003;49382;-25.924;28.194;2023-06-04T02:32:56;164;159;
40947;PMS5003;49382;-25.924;28.194;2023-06-04T02:35:22;152;149;
40947;PMS5003;49382;-25.924;28.194;2023-06-04T02:37:47;154;150;
40947;PMS5003;49382;-25.924;28.194;2023-06-04T02:40:12;138;135;
40947;PMS5003;49382;-25.924;28.194;2023-06-04T02:42:38;139;136;
40947;PMS5003;49382;-25.924;28.194;2023-06-04T02:45:04;132;128;
40947;PMS5003;49382;-25.924;28.194;2023-06-04T02:47:28;135;131;
40947;PMS5003;49382;-25.924;28.194;2023-06-04T02:49:54;122;119;
40947;PMS5003;49382;-25.924;28.194;2023-06-04T02:52:19;122;118;
40947;PMS5003;49382;-25.924;28.194;2023-06-04T02:54:44;140;134;
40947;PMS5003;49382;-25.924;28.194;2023-06-04T02:57:09;133;131;
40947;PMS5003;49382;-25.924;28.194;2023-06-04T02:59:34;133;128;
40947;PMS5003;49382;-25.924;28.194;2023-06-04T03:02:00;132;131;
40947;PMS5003;49382;-25.924;28.194;2023-06-04T03:04:25;130;127;
40947;PMS5003;49382;-25.924;28.194;2023-06-04T03:06:51;123;123;
40947;PMS5003;49382;-25.924;28.194;2023-06-04T03:09:16;114;113;
40947;PMS5003;49382;-25.924;28.194;2023-06-04T03:11:41;112;108;
40947;PMS5003;49382;-25.924;28.194;2023-06-04T03:14:07;112;108;
40947;PMS5003;49382;-25.924;28.194;2023-06-04T03:16:32;128;122;
40947;PMS5003;49382;-25.924;28.194;2023-06-04T03:18:57;141;137;
40947;PMS5003;49382;-25.924;28.194;2023-06-04T03:21:22;147;141;
40947;PMS5003;49382;-25.924;28.194;2023-06-04T03:23:48;125;122;
40947;PMS5003;49382;-25.924;28.194;2023-06-04T03:26:13;129;124;
40947;PMS5003;49382;-25.924;28.194;2023-06-04T03:28:38;122;115;
40947;PMS5003;49382;-25.924;28.194;2023-06-04T03:31:04;126;121;
40947;PMS5003;49382;-25.924;28.194;2023-06-04T03:33:29;113;108;
40947;PMS5003;49382;-25.924;28.194;2023-06-04T03:35:55;115;108;
40947;PMS5003;49382;-25.924;28.194;2023-06-04T03:38:21;113;105;
40947;PMS5003;49382;-25.924;28.194;2023-06-04T03:40:46;105;100;
40947;PMS5003;49382;-25.924;28.194;2023-06-04T03:43:12;113;111;
40947;PMS5003;49382;-25.924;28.194;2023-06-04T03:45:37;103;100;
40947;PMS5003;49382;-25.924;28.194;2023-06-04T03:48:03;106;101;
40947;PMS5003;49382;-25.924;28.194;2023-06-04T03:50:28;109;104;
40947;PMS5003;49382;-25.924;28.194;2023-06-04T03:52:54;88;86;
40947;PMS5003;49382;-25.924;28.194;2023-06-04T03:55:19;97;91;
40947;PMS5003;49382;-25.924;28.194;2023-06-04T03:57:45;90;89;
40947;PMS5003;49382;-25.924;28.194;2023-06-04T04:00:10;91;86;
40947;PMS5003;49382;-25.924;28.194;2023-06-04T04:02:35;82;77;
40947;PMS5003;49382;-25.924;28.194;2023-06-04T04:05:01;74;74;
40947;PMS5003;49382;-25.924;28.194;2023-06-04T04:07:27;55;55;
40947;PMS5003;49382;-25.924;28.194;2023-06-04T04:09:52;71;68;
40947;PMS5003;49382;-25.924;28.194;2023-06-04T04:12:17;89;86;
40947;PMS5003;49382;-25.924;28.194;2023-06-04T04:14:43;87;83;
40947;PMS5003;49382;-25.924;28.194;2023-06-04T04:17:09;93;87;
40947;PMS5003;49382;-25.924;28.194;2023-06-04T04:19:34;93;88;
40947;PMS5003;49382;-25.924;28.194;2023-06-04T04:21:59;93;91;
40947;PMS5003;49382;-25.924;28.194;2023-06-04T04:24:25;94;90;
40947;PMS5003;49382;-25.924;28.194;2023-06-04T04:26:50;73;71;
40947;PMS5003;49382;-25.924;28.194;2023-06-04T04:29:15;74;72;
40947;PMS5003;49382;-25.924;28.194;2023-06-04T04:31:41;82;77;
40947;PMS5003;49382;-25.924;28.194;2023-06-04T04:34:07;83;80;
40947;PMS5003;49382;-25.924;28.194;2023-06-04T04:36:32;88;83;
40947;PMS5003;49382;-25.924;28.194;2023-06-04T04:38:57;87;83;
40947;PMS5003;49382;-25.924;28.194;2023-06-04T04:41:23;82;78;
40947;PMS5003;49382;-25.924;28.194;2023-06-04T04:43:49;88;82;
40947;PMS5003;49382;-25.924;28.194;2023-06-04T04:46:14;78;75;
40947;PMS5003;49382;-25.924;28.194;2023-06-04T04:48:39;58;57;
40947;PMS5003;49382;-25.924;28.194;2023-06-04T04:51:05;63;61;
40947;PMS5003;49382;-25.924;28.194;2023-06-04T04:53:31;66;64;
40947;PMS5003;49382;-25.924;28.194;2023-06-04T04:55:57;64;63;
40947;PMS5003;49382;-25.924;28.194;2023-06-04T04:58:22;63;62;
40947;PMS5003;49382;-25.924;28.194;2023-06-04T05:00:48;59;54;
40947;PMS5003;49382;-25.924;28.194;2023-06-04T05:03:13;68;63;
40947;PMS5003;49382;-25.924;28.194;2023-06-04T05:05:38;66;61;
40947;PMS5003;49382;-25.924;28.194;2023-06-04T05:08:04;70;70;
40947;PMS5003;49382;-25.924;28.194;2023-06-04T05:10:28;85;83;
40947;PMS5003;49382;-25.924;28.194;2023-06-04T05:12:54;93;91;
40947;PMS5003;49382;-25.924;28.194;2023-06-04T05:15:19;103;97;
40947;PMS5003;49382;-25.924;28.194;2023-06-04T05:17:44;102;98;
40947;PMS5003;49382;-25.924;28.194;2023-06-04T05:20:10;102;102;
40947;PMS5003;49382;-25.924;28.194;2023-06-04T05:22:35;106;101;
40947;PMS5003;49382;-25.924;28.194;2023-06-04T05:25:02;93;93;
40947;PMS5003;49382;-25.924;28.194;2023-06-04T05:27:26;80;76;
40947;PMS5003;49382;-25.924;28.194;2023-06-04T05:29:51;72;68;
40947;PMS5003;49382;-25.924;28.194;2023-06-04T05:32:17;83;81;
40947;PMS5003;49382;-25.924;28.194;2023-06-04T05:34:43;82;77;
40947;PMS5003;49382;-25.924;28.194;2023-06-04T05:37:09;83;81;
40947;PMS5003;49382;-25.924;28.194;2023-06-04T05:39:34;87;81;
40947;PMS5003;49382;-25.924;28.194;2023-06-04T05:41:59;83;81;
40947;PMS5003;49382;-25.924;28.194;2023-06-04T05:44:24;91;86;
40947;PMS5003;49382;-25.924;28.194;2023-06-04T05:46:50;102;96;
40947;PMS5003;49382;-25.924;28.194;2023-06-04T05:49:15;104;95;
40947;PMS5003;49382;-25.924;28.194;2023-06-04T05:51:40;111;110;
40947;PMS5003;49382;-25.924;28.194;2023-06-04T05:54:06;113;107;
40947;PMS5003;49382;-25.924;28.194;2023-06-04T05:56:31;110;108;
40947;PMS5003;49382;-25.924;28.194;2023-06-04T05:58:56;116;112;
40947;PMS5003;49382;-25.924;28.194;2023-06-04T06:01:21;116;110;
40947;PMS5003;49382;-25.924;28.194;2023-06-04T06:03:46;120;115;
40947;PMS5003;49382;-25.924;28.194;2023-06-04T06:06:12;117;116;
40947;PMS5003;49382;-25.924;28.194;2023-06-04T06:08:37;111;108;
40947;PMS5003;49382;-25.924;28.194;2023-06-04T06:11:03;116;113;
40947;PMS5003;49382;-25.924;28.194;2023-06-04T06:13:28;116;111;
40947;PMS5003;49382;-25.924;28.194;2023-06-04T06:15:55;111;106;
40947;PMS5003;49382;-25.924;28.194;2023-06-04T06:18:19;109;109;
40947;PMS5003;49382;-25.924;28.194;2023-06-04T06:20:44;102;97;
40947;PMS5003;49382;-25.924;28.194;2023-06-04T06:23:10;93;93;
40947;PMS5003;49382;-25.924;28.194;2023-06-04T06:25:35;102;98;
40947;PMS5003;49382;-25.924;28.194;2023-06-04T06:28:01;99;95;
40947;PMS5003;49382;-25.924;28.194;2023-06-04T06:30:26;110;101;
40947;PMS5003;49382;-25.924;28.194;2023-06-04T06:32:51;103;100;
40947;PMS5003;49382;-25.924;28.194;2023-06-04T06:35:17;111;106;
40947;PMS5003;49382;-25.924;28.194;2023-06-04T06:37:42;102;99;
40947;PMS5003;49382;-25.924;28.194;2023-06-04T06:40:08;97;94;
40947;PMS5003;49382;-25.924;28.194;2023-06-04T06:42:33;81;79;
40947;PMS5003;49382;-25.924;28.194;2023-06-04T06:44:59;85;83;
40947;PMS5003;49382;-25.924;28.194;2023-06-04T06:47:24;69;67;
40947;PMS5003;49382;-25.924;28.194;2023-06-04T06:49:50;71;66;
40947;PMS5003;49382;-25.924;28.194;2023-06-04T06:52:15;64;62;
40947;PMS5003;49382;-25.924;28.194;2023-06-04T06:54:41;62;60;
40947;PMS5003;49382;-25.924;28.194;2023-06-04T06:57:07;59;59;
40947;PMS5003;49382;-25.924;28.194;2023-06-04T06:59:32;58;54;
40947;PMS5003;49382;-25.924;28.194;2023-06-04T07:01:58;57;54;
40947;PMS5003;49382;-25.924;28.194;2023-06-04T07:04:23;60;57;
40947;PMS5003;49382;-25.924;28.194;2023-06-04T07:06:49;60;56;
40947;PMS5003;49382;-25.924;28.194;2023-06-04T07:09:15;53;50;
40947;PMS5003;49382;-25.924;28.194;2023-06-04T07:11:40;51;51;
40947;PMS5003;49382;-25.924;28.194;2023-06-04T07:14:06;46;46;
40947;PMS5003;49382;-25.924;28.194;2023-06-04T07:16:31;48;45;
40947;PMS5003;49382;-25.924;28.194;2023-06-04T07:18:57;47;47;
40947;PMS5003;49382;-25.924;28.194;2023-06-04T07:21:22;78;74;
40947;PMS5003;49382;-25.924;28.194;2023-06-04T07:23:47;73;69;
40947;PMS5003;49382;-25.924;28.194;2023-06-04T07:26:12;73;70;
40947;PMS5003;49382;-25.924;28.194;2023-06-04T07:28:37;69;68;
40947;PMS5003;49382;-25.924;28.194;2023-06-04T07:31:03;72;72;
40947;PMS5003;49382;-25.924;28.194;2023-06-04T07:33:28;80;76;
40947;PMS5003;49382;-25.924;28.194;2023-06-04T07:35:54;78;78;
40947;PMS5003;49382;-25.924;28.194;2023-06-04T07:38:20;76;74;
40947;PMS5003;49382;-25.924;28.194;2023-06-04T07:40:47;42;39;
40947;PMS5003;49382;-25.924;28.194;2023-06-04T07:43:11;46;46;
40947;PMS5003;49382;-25.924;28.194;2023-06-04T07:45:37;28;28;
40947;PMS5003;49382;-25.924;28.194;2023-06-04T07:48:02;28;28;
40947;PMS5003;49382;-25.924;28.194;2023-06-04T07:50:28;25;25;
40947;PMS5003;49382;-25.924;28.194;2023-06-04T07:52:53;28;27;
40947;PMS5003;49382;-25.924;28.194;2023-06-04T07:55:19;25;25;
40947;PMS5003;49382;-25.924;28.194;2023-06-04T07:57:45;23;23;
40947;PMS5003;49382;-25.924;28.194;2023-06-04T08:00:11;26;24;
40947;PMS5003;49382;-25.924;28.194;2023-06-04T08:02:36;22;22;
40947;PMS5003;49382;-25.924;28.194;2023-06-04T08:05:01;20;20;
40947;PMS5003;49382;-25.924;28.194;2023-06-04T08:07:27;21;21;
40947;PMS5003;49382;-25.924;28.194;2023-06-04T08:09:53;17;17;
40947;PMS5003;49382;-25.924;28.194;2023-06-04T08:12:18;17;17;
40947;PMS5003;49382;-25.924;28.194;2023-06-04T08:14:44;22;22;
40947;PMS5003;49382;-25.924;28.194;2023-06-04T08:17:09;19;19;
40947;PMS5003;49382;-25.924;28.194;2023-06-04T08:19:35;19;19;
40947;PMS5003;49382;-25.924;28.194;2023-06-04T08:22:01;23;22;
40947;PMS5003;49382;-25.924;28.194;2023-06-04T08:24:26;22;22;
40947;PMS5003;49382;-25.924;28.194;2023-06-04T08:26:52;16;16;
40947;PMS5003;49382;-25.924;28.194;2023-06-04T08:29:18;18;18;
40947;PMS5003;49382;-25.924;28.194;2023-06-04T08:31:43;19;18;
40947;PMS5003;49382;-25.924;28.194;2023-06-04T08:34:09;16;16;
40947;PMS5003;49382;-25.924;28.194;2023-06-04T08:36:35;19;17;
40947;PMS5003;49382;-25.924;28.194;2023-06-04T08:39:00;13;13;
40947;PMS5003;49382;-25.924;28.194;2023-06-04T08:41:28;15;15;
40947;PMS5003;49382;-25.924;28.194;2023-06-04T08:43:52;16;16;
40947;PMS5003;49382;-25.924;28.194;2023-06-04T08:46:17;14;14;
40947;PMS5003;49382;-25.924;28.194;2023-06-04T08:48:43;12;12;
40947;PMS5003;49382;-25.924;28.194;2023-06-04T08:51:09;13;13;
40947;PMS5003;49382;-25.924;28.194;2023-06-04T08:53:34;15;15;
40947;PMS5003;49382;-25.924;28.194;2023-06-04T08:56:00;15;15;
40947;PMS5003;49382;-25.924;28.194;2023-06-04T08:58:28;15;15;
40947;PMS5003;49382;-25.924;28.194;2023-06-04T09:00:51;14;14;
40947;PMS5003;49382;-25.924;28.194;2023-06-04T09:03:17;16;16;
40947;PMS5003;49382;-25.924;28.194;2023-06-04T09:05:43;16;16;
40947;PMS5003;49382;-25.924;28.194;2023-06-04T09:08:08;15;15;
40947;PMS5003;49382;-25.924;28.194;2023-06-04T09:10:34;18;17;
40947;PMS5003;49382;-25.924;28.194;2023-06-04T09:13:01;17;17;
40947;PMS5003;49382;-25.924;28.194;2023-06-04T09:15:25;19;19;
40947;PMS5003;49382;-25.924;28.194;2023-06-04T09:17:50;19;19;
40947;PMS5003;49382;-25.924;28.194;2023-06-04T09:20:19;21;20;
40947;PMS5003;49382;-25.924;28.194;2023-06-04T09:22:42;38;33;
40947;PMS5003;49382;-25.924;28.194;2023-06-04T09:25:07;19;19;
40947;PMS5003;49382;-25.924;28.194;2023-06-04T09:27:37;19;19;
40947;PMS5003;49382;-25.924;28.194;2023-06-04T09:29:58;19;19;
40947;PMS5003;49382;-25.924;28.194;2023-06-04T09:32:24;18;18;
40947;PMS5003;49382;-25.924;28.194;2023-06-04T09:34:50;20;20;
40947;PMS5003;49382;-25.924;28.194;2023-06-04T09:37:15;44;44;
40947;PMS5003;49382;-25.924;28.194;2023-06-04T09:39:41;19;19;
40947;PMS5003;49382;-25.924;28.194;2023-06-04T09:42:07;22;22;
40947;PMS5003;49382;-25.924;28.194;2023-06-04T09:44:42;24;21;
40947;PMS5003;49382;-25.924;28.194;2023-06-04T09:46:58;21;20;
40947;PMS5003;49382;-25.924;28.194;2023-06-04T09:49:24;23;23;
40947;PMS5003;49382;-25.924;28.194;2023-06-04T09:51:50;23;23;
40947;PMS5003;49382;-25.924;28.194;2023-06-04T09:54:15;22;22;
40947;PMS5003;49382;-25.924;28.194;2023-06-04T09:56:41;25;24;
40947;PMS5003;49382;-25.924;28.194;2023-06-04T09:59:08;30;30;
40947;PMS5003;49382;-25.924;28.194;2023-06-04T10:01:32;34;32;
40947;PMS5003;49382;-25.924;28.194;2023-06-04T10:03:58;54;51;
40947;PMS5003;49382;-25.924;28.194;2023-06-04T10:06:23;43;40;
40947;PMS5003;49382;-25.924;28.194;2023-06-04T10:08:48;54;52;
40947;PMS5003;49382;-25.924;28.194;2023-06-04T10:11:13;32;29;
40947;PMS5003;49382;-25.924;28.194;2023-06-04T10:13:40;33;30;
40947;PMS5003;49382;-25.924;28.194;2023-06-04T10:16:03;35;32;
40947;PMS5003;49382;-25.924;28.194;2023-06-04T10:18:29;27;25;
40947;PMS5003;49382;-25.924;28.194;2023-06-04T10:20:55;44;39;
40947;PMS5003;49382;-25.924;28.194;2023-06-04T10:23:19;37;34;
40947;PMS5003;49382;-25.924;28.194;2023-06-04T10:25:46;70;66;
40947;PMS5003;49382;-25.924;28.194;2023-06-04T10:28:11;33;28;
40947;PMS5003;49382;-25.924;28.194;2023-06-04T10:30:36;47;44;
40947;PMS5003;49382;-25.924;28.194;2023-06-04T10:33:01;27;23;
40947;PMS5003;49382;-25.924;28.194;2023-06-04T10:35:30;33;30;
40947;PMS5003;49382;-25.924;28.194;2023-06-04T10:37:52;41;37;
40947;PMS5003;49382;-25.924;28.194;2023-06-04T10:40:17;39;36;
40947;PMS5003;49382;-25.924;28.194;2023-06-04T10:42:43;58;55;
40947;PMS5003;49382;-25.924;28.194;2023-06-04T10:45:09;90;87;
40947;PMS5003;49382;-25.924;28.194;2023-06-04T10:47:34;37;37;
40947;PMS5003;49382;-25.924;28.194;2023-06-04T10:52:25;12;12;
40947;PMS5003;49382;-25.924;28.194;2023-06-04T10:54:51;13;13;
40947;PMS5003;49382;-25.924;28.194;2023-06-04T10:57:17;15;15;
40947;PMS5003;49382;-25.924;28.194;2023-06-04T11:02:08;14;14;
40947;PMS5003;49382;-25.924;28.194;2023-06-04T11:04:34;16;15;
40947;PMS5003;49382;-25.924;28.194;2023-06-04T11:07:00;15;15;
40947;PMS5003;49382;-25.924;28.194;2023-06-04T11:09:26;18;18;
40947;PMS5003;49382;-25.924;28.194;2023-06-04T11:11:56;20;19;
40947;PMS5003;49382;-25.924;28.194;2023-06-04T11:14:18;28;28;
40947;PMS5003;49382;-25.924;28.194;2023-06-04T11:16:42;64;64;
40947;PMS5003;49382;-25.924;28.194;2023-06-04T11:19:08;28;28;
40947;PMS5003;49382;-25.924;28.194;2023-06-04T11:21:34;20;19;
40947;PMS5003;49382;-25.924;28.194;2023-06-04T11:23:59;19;16;
40947;PMS5003;49382;-25.924;28.194;2023-06-04T11:28:49;21;19;
40947;PMS5003;49382;-25.924;28.194;2023-06-04T11:31:15;16;13;
40947;PMS5003;49382;-25.924;28.194;2023-06-04T11:33:42;27;25;
40947;PMS5003;49382;-25.924;28.194;2023-06-04T11:36:05;26;26;
40947;PMS5003;49382;-25.924;28.194;2023-06-04T11:38:31;24;22;
40947;PMS5003;49382;-25.924;28.194;2023-06-04T11:40:57;74;72;
40947;PMS5003;49382;-25.924;28.194;2023-06-04T11:43:22;30;27;
40947;PMS5003;49382;-25.924;28.194;2023-06-04T11:45:47;39;39;
40947;PMS5003;49382;-25.924;28.194;2023-06-04T11:48:12;44;44;
40947;PMS5003;49382;-25.924;28.194;2023-06-04T11:50:37;56;56;
40947;PMS5003;49382;-25.924;28.194;2023-06-04T11:53:03;73;72;
40947;PMS5003;49382;-25.924;28.194;2023-06-04T11:55:28;18;18;
40947;PMS5003;49382;-25.924;28.194;2023-06-04T11:57:54;13;12;
40947;PMS5003;49382;-25.924;28.194;2023-06-04T12:00:20;12;12;
40947;PMS5003;49382;-25.924;28.194;2023-06-04T12:02:50;16;16;
40947;PMS5003;49382;-25.924;28.194;2023-06-04T12:05:12;16;16;
40947;PMS5003;49382;-25.924;28.194;2023-06-04T12:07:37;15;14;
40947;PMS5003;49382;-25.924;28.194;2023-06-04T12:10:05;14;13;
40947;PMS5003;49382;-25.924;28.194;2023-06-04T12:12:29;14;14;
40947;PMS5003;49382;-25.924;28.194;2023-06-04T12:14:58;12;12;
40947;PMS5003;49382;-25.924;28.194;2023-06-04T12:17:21;13;13;
40947;PMS5003;49382;-25.924;28.194;2023-06-04T12:19:48;11;11;
40947;PMS5003;49382;-25.924;28.194;2023-06-04T12:22:12;14;14;
40947;PMS5003;49382;-25.924;28.194;2023-06-04T12:27:04;14;14;
40947;PMS5003;49382;-25.924;28.194;2023-06-04T12:29:29;14;14;
40947;PMS5003;49382;-25.924;28.194;2023-06-04T12:34:21;12;12;
40947;PMS5003;49382;-25.924;28.194;2023-06-04T12:36:47;13;13;
40947;PMS5003;49382;-25.924;28.194;2023-06-04T12:39:13;11;11;
40947;PMS5003;49382;-25.924;28.194;2023-06-04T12:41:38;13;13;
40947;PMS5003;49382;-25.924;28.194;2023-06-04T12:44:04;13;13;
40947;PMS5003;49382;-25.924;28.194;2023-06-04T12:46:30;14;14;
40947;PMS5003;49382;-25.924;28.194;2023-06-04T12:48:56;12;12;
40947;PMS5003;49382;-25.924;28.194;2023-06-04T12:51:22;14;13;
40947;PMS5003;49382;-25.924;28.194;2023-06-04T12:53:47;16;16;
40947;PMS5003;49382;-25.924;28.194;2023-06-04T12:56:13;15;14;
40947;PMS5003;49382;-25.924;28.194;2023-06-04T12:58:39;15;13;
40947;PMS5003;49382;-25.924;28.194;2023-06-04T13:01:05;18;18;
40947;PMS5003;49382;-25.924;28.194;2023-06-04T13:03:31;15;15;
40947;PMS5003;49382;-25.924;28.194;2023-06-04T13:05:56;17;17;
40947;PMS5003;49382;-25.924;28.194;2023-06-04T13:08:22;18;18;
40947;PMS5003;49382;-25.924;28.194;2023-06-04T13:10:48;19;18;
40947;PMS5003;49382;-25.924;28.194;2023-06-04T13:13:14;18;18;
40947;PMS5003;49382;-25.924;28.194;2023-06-04T13:15:39;14;14;
40947;PMS5003;49382;-25.924;28.194;2023-06-04T13:18:05;17;17;
40947;PMS5003;49382;-25.924;28.194;2023-06-04T13:20:31;19;19;
40947;PMS5003;49382;-25.924;28.194;2023-06-04T13:22:57;16;16;
40947;PMS5003;49382;-25.924;28.194;2023-06-04T13:25:22;16;16;
40947;PMS5003;49382;-25.924;28.194;2023-06-04T13:27:48;19;19;
40947;PMS5003;49382;-25.924;28.194;2023-06-04T13:30:14;18;18;
40947;PMS5003;49382;-25.924;28.194;2023-06-04T13:32:40;19;19;
40947;PMS5003;49382;-25.924;28.194;2023-06-04T13:35:06;19;19;
40947;PMS5003;49382;-25.924;28.194;2023-06-04T13:37:32;19;19;
40947;PMS5003;49382;-25.924;28.194;2023-06-04T13:39:57;22;21;
40947;PMS5003;49382;-25.924;28.194;2023-06-04T13:42:23;20;20;
40947;PMS5003;49382;-25.924;28.194;2023-06-04T13:44:48;22;20;
40947;PMS5003;49382;-25.924;28.194;2023-06-04T13:47:14;20;20;
40947;PMS5003;49382;-25.924;28.194;2023-06-04T13:49:40;22;22;
40947;PMS5003;49382;-25.924;28.194;2023-06-04T13:52:06;22;22;
40947;PMS5003;49382;-25.924;28.194;2023-06-04T13:54:31;19;18;
40947;PMS5003;49382;-25.924;28.194;2023-06-04T13:56:57;17;16;
40947;PMS5003;49382;-25.924;28.194;2023-06-04T13:59:23;21;21;
40947;PMS5003;49382;-25.924;28.194;2023-06-04T14:01:49;18;18;
40947;PMS5003;49382;-25.924;28.194;2023-06-04T14:04:15;21;20;
40947;PMS5003;49382;-25.924;28.194;2023-06-04T14:06:41;21;19;
40947;PMS5003;49382;-25.924;28.194;2023-06-04T14:09:07;20;20;
40947;PMS5003;49382;-25.924;28.194;2023-06-04T14:11:32;19;19;
40947;PMS5003;49382;-25.924;28.194;2023-06-04T14:13:58;21;20;
40947;PMS5003;49382;-25.924;28.194;2023-06-04T14:16:24;22;22;
40947;PMS5003;49382;-25.924;28.194;2023-06-04T14:18:50;22;22;
40947;PMS5003;49382;-25.924;28.194;2023-06-04T14:21:15;23;23;
40947;PMS5003;49382;-25.924;28.194;2023-06-04T14:23:41;23;21;
40947;PMS5003;49382;-25.924;28.194;2023-06-04T14:26:07;23;22;
40947;PMS5003;49382;-25.924;28.194;2023-06-04T14:28:33;23;22;
40947;PMS5003;49382;-25.924;28.194;2023-06-04T14:30:58;23;22;
40947;PMS5003;49382;-25.924;28.194;2023-06-04T14:33:24;20;20;
40947;PMS5003;49382;-25.924;28.194;2023-06-04T14:35:50;16;16;
40947;PMS5003;49382;-25.924;28.194;2023-06-04T14:38:16;17;17;
40947;PMS5003;49382;-25.924;28.194;2023-06-04T14:40:41;15;15;
40947;PMS5003;49382;-25.924;28.194;2023-06-04T14:43:07;15;14;
40947;PMS5003;49382;-25.924;28.194;2023-06-04T14:45:33;16;16;
40947;PMS5003;49382;-25.924;28.194;2023-06-04T14:47:59;20;19;
40947;PMS5003;49382;-25.924;28.194;2023-06-04T14:50:25;16;16;
40947;PMS5003;49382;-25.924;28.194;2023-06-04T14:52:50;18;18;
40947;PMS5003;49382;-25.924;28.194;2023-06-04T14:55:17;17;17;
40947;PMS5003;49382;-25.924;28.194;2023-06-04T14:57:42;17;17;
40947;PMS5003;49382;-25.924;28.194;2023-06-04T15:00:08;16;15;
40947;PMS5003;49382;-25.924;28.194;2023-06-04T15:02:34;19;19;
40947;PMS5003;49382;-25.924;28.194;2023-06-04T15:05:00;18;18;
40947;PMS5003;49382;-25.924;28.194;2023-06-04T15:07:26;16;16;
40947;PMS5003;49382;-25.924;28.194;2023-06-04T15:09:51;18;18;
40947;PMS5003;49382;-25.924;28.194;2023-06-04T15:12:17;17;17;
40947;PMS5003;49382;-25.924;28.194;2023-06-04T15:14:43;17;17;
40947;PMS5003;49382;-25.924;28.194;2023-06-04T15:17:09;17;17;
40947;PMS5003;49382;-25.924;28.194;2023-06-04T15:19:35;18;18;
40947;PMS5003;49382;-25.924;28.194;2023-06-04T15:22:02;17;16;
40947;PMS5003;49382;-25.924;28.194;2023-06-04T15:24:26;16;16;
40947;PMS5003;49382;-25.924;28.194;2023-06-04T15:26:52;23;19;
40947;PMS5003;49382;-25.924;28.194;2023-06-04T15:29:18;24;24;
40947;PMS5003;49382;-25.924;28.194;2023-06-04T15:31:43;23;21;
40947;PMS5003;49382;-25.924;28.194;2023-06-04T15:34:08;16;16;
40947;PMS5003;49382;-25.924;28.194;2023-06-04T15:36:33;19;19;